createdAt,value
2022-10-10T00:01:43.853Z,2.78
2022-10-10T00:04:13.744Z,4.25
2022-10-10T00:06:42.264Z,3.38
2022-10-10T00:09:10.927Z,4.35
2022-10-10T00:11:39.480Z,3.03
2022-10-10T00:14:08.399Z,3.22
2022-10-10T00:16:37.032Z,3.50
2022-10-10T00:19:05.664Z,3.47
2022-10-10T00:21:35.692Z,4.22
2022-10-10T00:24:04.423Z,4.03
2022-10-10T00:26:33.032Z,3.70
2022-10-10T00:29:01.598Z,4.15
2022-10-10T00:31:30.278Z,3.97
2022-10-10T00:33:59.789Z,3.78
2022-10-10T00:36:28.394Z,4.32
2022-10-10T00:38:58.297Z,4.43
2022-10-10T00:41:27.024Z,5.03
2022-10-10T00:44:11.559Z,4.80
2022-10-10T00:46:41.044Z,5.78
2022-10-10T00:49:16.583Z,4.30
2022-10-10T00:51:48.847Z,5.32
2022-10-10T00:54:23.212Z,5.38
2022-10-10T00:56:58.161Z,5.32
2022-10-10T00:59:28.236Z,5.15
2022-10-10T01:01:56.751Z,4.97
2022-10-10T01:04:42.954Z,4.50
2022-10-10T01:07:19.046Z,4.28
2022-10-10T01:09:51.364Z,4.57
2022-10-10T01:12:33.598Z,5.60
2022-10-10T01:15:12.530Z,4.90
2022-10-10T01:17:48.869Z,5.47
2022-10-10T01:21:05.687Z,7.40
2022-10-10T01:24:09.923Z,6.88
2022-10-10T01:27:26.472Z,5.80
2022-10-10T01:30:07.273Z,6.60
2022-10-10T01:32:44.136Z,6.07
2022-10-10T01:35:33.770Z,6.50
2022-10-10T01:38:15.441Z,5.15
2022-10-10T01:40:51.071Z,5.05
2022-10-10T01:43:20.790Z,5.35
2022-10-10T01:45:54.170Z,5.72
2022-10-10T01:48:32.028Z,5.80
2022-10-10T01:51:26.799Z,5.90
2022-10-10T01:54:12.977Z,6.30
2022-10-10T01:56:49.640Z,7.30
2022-10-10T01:59:42.273Z,7.30
2022-10-10T02:02:24.690Z,7.13
2022-10-10T02:05:00.056Z,5.93
2022-10-10T02:07:34.595Z,7.03
2022-10-10T02:10:08.204Z,7.40
2022-10-10T02:12:38.495Z,7.28
2022-10-10T02:15:13.564Z,6.35
2022-10-10T02:17:47.842Z,6.95
2022-10-10T02:20:20.865Z,5.88
2022-10-10T02:22:53.128Z,5.40
2022-10-10T02:25:30.028Z,6.03
2022-10-10T02:28:10.909Z,6.13
2022-10-10T02:30:45.933Z,8.43
2022-10-10T02:33:21.857Z,7.93
2022-10-10T02:35:54.633Z,7.47
2022-10-10T02:38:23.753Z,8.93
2022-10-10T02:40:53.988Z,7.70
2022-10-10T02:43:23.708Z,8.65
2022-10-10T02:45:52.413Z,7.22
2022-10-10T02:48:22.623Z,9.35
2022-10-10T02:50:51.311Z,9.00
2022-10-10T02:53:19.954Z,9.90
2022-10-10T02:55:48.746Z,7.30
2022-10-10T02:58:17.401Z,8.60
2022-10-10T03:00:46.369Z,8.00
2022-10-10T03:03:14.937Z,8.85
2022-10-10T03:05:46.975Z,9.52
2022-10-10T03:08:15.705Z,7.07
2022-10-10T03:10:54.955Z,7.18
2022-10-10T03:13:23.998Z,7.03
2022-10-10T03:15:52.727Z,7.13
2022-10-10T03:18:22.381Z,8.48
2022-10-10T03:20:56.126Z,8.20
2022-10-10T03:23:25.533Z,8.45
2022-10-10T03:25:54.477Z,7.57
2022-10-10T03:28:23.591Z,7.70
2022-10-10T03:30:52.164Z,7.95
2022-10-10T03:33:20.798Z,8.18
2022-10-10T03:35:49.549Z,8.00
2022-10-10T03:38:19.460Z,7.07
2022-10-10T03:40:48.173Z,8.70
2022-10-10T03:43:17.049Z,8.23
2022-10-10T03:45:47.727Z,8.77
2022-10-10T03:48:16.733Z,7.78
2022-10-10T03:50:45.729Z,7.53
2022-10-10T03:53:14.442Z,8.07
2022-10-10T03:55:44.917Z,9.25
2022-10-10T03:58:18.914Z,7.47
2022-10-10T04:00:56.312Z,7.47
2022-10-10T04:03:25.372Z,8.68
2022-10-10T04:05:54.441Z,8.13
2022-10-10T04:08:23.573Z,7.35
2022-10-10T04:10:55.320Z,8.85
2022-10-10T04:13:27.599Z,8.27
2022-10-10T04:15:58.085Z,8.02
2022-10-10T04:18:27.165Z,7.97
2022-10-10T04:20:55.706Z,7.57
2022-10-10T04:23:24.702Z,7.55
2022-10-10T04:25:54.866Z,7.80
2022-10-10T04:28:23.659Z,7.63
2022-10-10T04:30:52.459Z,7.15
2022-10-10T04:33:21.082Z,7.13
2022-10-10T04:35:50.818Z,11.30
2022-10-10T04:38:21.407Z,9.52
2022-10-10T04:40:51.007Z,9.73
2022-10-10T04:43:21.345Z,8.73
2022-10-10T04:45:49.941Z,7.10
2022-10-10T04:48:18.547Z,8.07
2022-10-10T04:50:53.769Z,14.02
2022-10-10T04:53:23.179Z,7.63
2022-10-10T04:55:52.048Z,7.07
2022-10-10T04:58:22.274Z,7.72
2022-10-10T05:00:53.908Z,7.07
2022-10-10T05:03:23.386Z,7.95
2022-10-10T05:05:52.234Z,6.95
2022-10-10T05:08:21.560Z,7.22
2022-10-10T05:10:52.992Z,6.55
2022-10-10T05:13:22.987Z,7.18
2022-10-10T05:15:53.341Z,7.95
2022-10-10T05:18:22.464Z,8.98
2022-10-10T05:20:51.044Z,6.47
2022-10-10T05:23:19.848Z,10.25
2022-10-10T05:25:51.668Z,10.35
2022-10-10T05:28:20.430Z,8.35
2022-10-10T05:30:52.254Z,8.52
2022-10-10T05:33:20.902Z,9.55
2022-10-10T05:35:49.724Z,7.88
2022-10-10T05:38:18.329Z,9.10
2022-10-10T05:40:46.938Z,5.95
2022-10-10T05:43:15.472Z,7.50
2022-10-10T05:45:44.654Z,6.47
2022-10-10T05:48:14.673Z,7.80
2022-10-10T05:50:50.167Z,7.03
2022-10-10T05:53:18.845Z,8.00
2022-10-10T05:55:47.327Z,9.25
2022-10-10T05:58:16.468Z,6.80
2022-10-10T06:00:47.153Z,5.82
2022-10-10T06:03:17.984Z,6.25
2022-10-10T06:05:48.874Z,5.35
2022-10-10T06:08:17.421Z,6.80
2022-10-10T06:10:47.931Z,5.35
2022-10-10T06:13:24.099Z,5.60
2022-10-10T06:15:53.594Z,7.78
2022-10-10T06:18:23.631Z,5.20
2022-10-10T06:20:52.191Z,4.95
2022-10-10T06:23:20.832Z,5.03
2022-10-10T06:25:52.601Z,7.40
2022-10-10T06:28:21.607Z,5.10
2022-10-10T06:30:50.619Z,4.50
2022-10-10T06:33:19.907Z,5.07
2022-10-10T06:35:50.817Z,7.53
2022-10-10T06:38:19.657Z,6.30
2022-10-10T06:40:48.447Z,4.85
2022-10-10T06:43:18.396Z,4.90
2022-10-10T06:45:51.703Z,5.78
2022-10-10T06:48:20.313Z,4.45
2022-10-10T06:51:00.510Z,6.22
2022-10-10T06:53:29.602Z,6.57
2022-10-10T06:55:59.207Z,4.45
2022-10-10T06:58:29.941Z,4.65
2022-10-10T07:01:01.677Z,6.80
2022-10-10T07:03:31.815Z,18.75
2022-10-10T07:06:04.209Z,11.52
2022-10-10T07:08:33.104Z,12.80
2022-10-10T07:11:02.189Z,6.43
2022-10-10T07:13:31.013Z,22.05
2022-10-10T07:15:59.618Z,22.55
2022-10-10T07:18:28.618Z,5.97
2022-10-10T07:20:59.076Z,10.48
2022-10-10T07:23:31.316Z,11.05
2022-10-10T07:26:05.384Z,9.73
2022-10-10T07:28:34.129Z,7.22
2022-10-10T07:31:06.015Z,8.18
2022-10-10T07:33:36.646Z,5.28
2022-10-10T07:36:05.742Z,5.10
2022-10-10T07:38:36.794Z,6.72
2022-10-10T07:41:07.650Z,7.38
2022-10-10T07:43:37.444Z,5.68
2022-10-10T07:46:09.632Z,5.05
2022-10-10T07:48:40.168Z,5.07
2022-10-10T07:51:09.520Z,4.13
2022-10-10T07:53:40.885Z,4.95
2022-10-10T07:56:11.279Z,8.02
2022-10-10T07:58:40.316Z,6.65
2022-10-10T08:01:11.666Z,5.32
2022-10-10T08:03:41.499Z,4.18
2022-10-10T08:06:13.381Z,6.55
2022-10-10T08:08:50.825Z,4.38
2022-10-10T08:11:23.502Z,3.55
2022-10-10T08:13:52.697Z,5.43
2022-10-10T08:16:21.741Z,4.65
2022-10-10T08:18:50.331Z,4.45
2022-10-10T08:21:19.883Z,4.30
2022-10-10T08:23:49.868Z,4.10
2022-10-10T08:26:21.044Z,4.00
2022-10-10T08:28:49.835Z,5.03
2022-10-10T08:31:21.196Z,7.88
2022-10-10T08:33:52.831Z,3.83
2022-10-10T08:36:25.123Z,5.35
2022-10-10T08:38:59.426Z,5.57
2022-10-10T08:41:41.505Z,7.00
2022-10-10T08:44:20.848Z,9.05
2022-10-10T08:46:54.945Z,6.03
2022-10-10T08:49:31.012Z,5.18
2022-10-10T08:52:09.837Z,4.60
2022-10-10T08:54:44.003Z,5.97
2022-10-10T08:57:25.930Z,5.88
2022-10-10T09:00:00.006Z,4.28
2022-10-10T09:02:55.571Z,5.10
2022-10-10T09:05:47.957Z,3.53
2022-10-10T09:08:37.124Z,4.97
2022-10-10T09:11:22.404Z,3.67
2022-10-10T09:14:10.439Z,3.55
2022-10-10T09:16:49.589Z,4.03
2022-10-10T09:19:35.126Z,4.32
2022-10-10T09:22:13.264Z,4.90
2022-10-10T09:24:49.026Z,4.97
2022-10-10T09:27:28.533Z,4.95
2022-10-10T09:30:04.423Z,4.85
2022-10-10T09:32:41.592Z,6.45
2022-10-10T09:35:20.227Z,3.92
2022-10-10T09:37:52.252Z,5.78
2022-10-10T09:40:28.569Z,6.72
2022-10-10T09:42:58.888Z,3.35
2022-10-10T09:45:37.293Z,2.90
2022-10-10T09:48:06.404Z,4.32
2022-10-10T09:50:36.571Z,3.03
2022-10-10T09:53:06.732Z,4.70
2022-10-10T09:55:38.370Z,5.57
2022-10-10T09:58:21.865Z,2.92
2022-10-10T10:00:50.621Z,4.30
2022-10-10T10:03:23.015Z,4.60
2022-10-10T10:06:02.007Z,4.55
2022-10-10T10:08:33.484Z,7.18
2022-10-10T10:11:04.573Z,4.50
2022-10-10T10:13:37.745Z,3.70
2022-10-10T10:16:10.962Z,7.13
2022-10-10T10:18:44.254Z,6.40
2022-10-10T10:21:23.568Z,3.95
2022-10-10T10:23:57.234Z,11.77
2022-10-10T10:26:30.670Z,5.80
2022-10-10T10:29:00.749Z,4.80
2022-10-10T10:31:54.568Z,17.00
2022-10-10T10:35:02.343Z,4.30
2022-10-10T10:37:50.888Z,6.57
2022-10-10T10:40:30.998Z,4.75
2022-10-10T10:43:39.618Z,4.50
2022-10-10T10:46:20.961Z,4.68
2022-10-10T10:49:02.215Z,6.65
2022-10-10T10:51:51.676Z,3.08
2022-10-10T10:54:41.219Z,5.85
2022-10-10T10:57:40.823Z,7.03
2022-10-10T11:00:21.848Z,4.60
2022-10-10T11:03:38.450Z,4.90
2022-10-10T11:06:25.166Z,3.22
2022-10-10T11:09:31.022Z,4.30
2022-10-10T11:12:17.227Z,4.70
2022-10-10T11:14:58.942Z,6.05
2022-10-10T11:17:37.261Z,3.00
2022-10-10T11:20:21.253Z,4.50
2022-10-10T11:22:57.246Z,4.03
2022-10-10T11:25:33.392Z,4.63
2022-10-10T11:28:09.599Z,7.30
2022-10-10T11:30:46.104Z,3.38
2022-10-10T11:33:21.080Z,3.80
2022-10-10T11:36:01.565Z,4.88
2022-10-10T11:38:44.753Z,11.48
2022-10-10T11:41:19.375Z,3.38
2022-10-10T11:43:55.222Z,6.05
2022-10-10T11:46:34.143Z,4.80
2022-10-10T11:49:11.019Z,6.18
2022-10-10T11:52:31.985Z,4.97
2022-10-10T11:55:02.930Z,7.15
2022-10-10T11:57:40.905Z,5.22
2022-10-10T12:00:16.342Z,5.60
2022-10-10T12:02:47.222Z,7.35
2022-10-10T12:05:24.594Z,10.52
2022-10-10T12:08:17.864Z,4.65
2022-10-10T12:10:55.653Z,6.55
2022-10-10T12:13:34.256Z,5.75
2022-10-10T12:16:08.506Z,6.25
2022-10-10T12:18:45.304Z,5.13
2022-10-10T12:21:17.278Z,6.38
2022-10-10T12:23:51.173Z,6.07
2022-10-10T12:26:24.430Z,3.33
2022-10-10T12:29:06.737Z,4.65
2022-10-10T12:31:38.533Z,4.53
2022-10-10T12:34:38.936Z,5.45
2022-10-10T12:37:26.460Z,4.32
2022-10-10T12:40:22.255Z,5.50
2022-10-10T12:43:25.652Z,4.63
2022-10-10T12:46:09.717Z,4.78
2022-10-10T12:48:38.941Z,7.50
2022-10-10T12:51:18.250Z,4.22
2022-10-10T12:53:56.265Z,3.47
2022-10-10T12:56:43.960Z,6.70
2022-10-10T12:59:24.738Z,8.02
2022-10-10T13:01:58.430Z,5.65
2022-10-10T13:04:28.477Z,3.72
2022-10-10T13:07:01.155Z,4.00
2022-10-10T13:09:36.021Z,3.63
2022-10-10T13:12:21.887Z,4.32
2022-10-10T13:14:50.535Z,6.57
2022-10-10T13:17:31.990Z,4.10
2022-10-10T13:20:02.561Z,3.10
2022-10-10T13:22:33.639Z,8.75
2022-10-10T13:25:05.412Z,5.63
2022-10-10T13:27:36.330Z,3.75
2022-10-10T13:30:08.920Z,6.15
2022-10-10T13:32:37.909Z,5.40
2022-10-10T13:35:16.116Z,5.75
2022-10-10T13:37:46.305Z,4.90
2022-10-10T13:40:18.088Z,4.25
2022-10-10T13:42:50.052Z,3.95
2022-10-10T13:45:38.820Z,3.92
2022-10-10T13:48:41.506Z,4.72
2022-10-10T13:51:13.139Z,7.32
2022-10-10T13:53:52.059Z,4.38
2022-10-10T13:56:32.106Z,4.10
2022-10-10T13:59:13.259Z,12.50
2022-10-10T14:01:44.455Z,4.18
2022-10-10T14:04:21.761Z,8.05
2022-10-10T14:06:59.970Z,5.32
2022-10-10T14:09:41.655Z,6.68
2022-10-10T14:12:20.372Z,5.97
2022-10-10T14:14:53.017Z,4.18
2022-10-10T14:17:22.277Z,4.30
2022-10-10T14:19:51.977Z,5.07
2022-10-10T14:22:21.390Z,6.55
2022-10-10T14:24:50.804Z,10.10
2022-10-10T14:27:27.040Z,4.45
2022-10-10T14:29:59.241Z,5.88
2022-10-10T14:32:28.088Z,4.97
2022-10-10T14:34:56.719Z,4.10
2022-10-10T14:37:28.423Z,4.18
2022-10-10T14:39:57.864Z,6.20
2022-10-10T14:42:27.787Z,6.07
2022-10-10T14:44:57.751Z,4.63
2022-10-10T14:47:26.892Z,4.57
2022-10-10T14:49:57.423Z,6.32
2022-10-10T14:52:26.231Z,5.07
2022-10-10T14:54:54.867Z,4.22
2022-10-10T14:57:23.542Z,5.63
2022-10-10T14:59:52.235Z,4.72
2022-10-10T15:02:23.875Z,3.95
2022-10-10T15:04:52.983Z,4.95
2022-10-10T15:07:21.689Z,4.60
2022-10-10T15:12:42.827Z,7.57
2022-10-10T15:15:13.873Z,4.28
2022-10-10T15:17:44.317Z,7.35
2022-10-10T15:20:14.727Z,4.65
2022-10-10T15:22:46.115Z,3.50
2022-10-10T15:25:14.840Z,4.65
2022-10-10T15:27:43.505Z,4.90
2022-10-10T15:30:12.959Z,5.93
2022-10-10T15:32:43.809Z,6.55
2022-10-10T15:35:17.372Z,4.72
2022-10-10T15:37:46.768Z,5.70
2022-10-10T15:40:20.726Z,3.88
2022-10-10T15:42:50.853Z,4.63
2022-10-10T15:45:37.395Z,7.03
2022-10-10T15:48:10.699Z,3.85
2022-10-10T15:50:43.683Z,3.47
2022-10-10T15:53:12.636Z,3.75
2022-10-10T15:55:43.838Z,4.85
2022-10-10T15:58:13.146Z,4.03
2022-10-10T16:00:43.308Z,4.85
2022-10-10T16:03:13.888Z,4.60
2022-10-10T16:05:43.840Z,4.55
2022-10-10T16:08:13.548Z,4.10
2022-10-10T16:10:44.814Z,7.00
2022-10-10T16:13:14.115Z,7.47
2022-10-10T16:15:42.692Z,5.50
2022-10-10T16:18:13.129Z,7.20
2022-10-10T16:20:41.745Z,4.53
2022-10-10T16:23:10.438Z,4.82
2022-10-10T16:25:39.023Z,5.47
2022-10-10T16:28:07.721Z,5.68
2022-10-10T16:30:36.440Z,7.70
2022-10-10T16:33:05.260Z,4.68
2022-10-10T16:35:39.032Z,6.63
2022-10-10T16:38:07.572Z,5.03
2022-10-10T16:40:37.223Z,7.47
2022-10-10T16:43:06.618Z,4.47
2022-10-10T16:45:42.884Z,6.93
2022-10-10T16:48:11.984Z,7.38
2022-10-10T16:50:43.343Z,6.40
2022-10-10T16:53:12.351Z,4.50
2022-10-10T16:55:42.079Z,7.65
2022-10-10T16:58:11.426Z,6.90
2022-10-10T17:00:43.831Z,10.63
2022-10-10T17:03:12.502Z,6.47
2022-10-10T17:05:43.377Z,8.25
2022-10-10T17:08:11.969Z,6.80
2022-10-10T17:10:40.770Z,6.43
2022-10-10T17:13:09.327Z,6.50
2022-10-10T17:15:43.224Z,6.65
2022-10-10T17:18:11.805Z,5.70
2022-10-10T17:20:44.159Z,8.13
2022-10-10T17:23:13.617Z,7.40
2022-10-10T17:25:43.225Z,6.25
2022-10-10T17:28:12.680Z,7.45
2022-10-10T17:30:45.630Z,10.15
2022-10-10T17:33:16.846Z,9.02
2022-10-10T17:35:50.598Z,10.82
2022-10-10T17:38:38.434Z,6.38
2022-10-10T17:41:09.670Z,6.53
2022-10-10T17:43:38.797Z,7.38
2022-10-10T17:46:33.167Z,8.50
2022-10-10T17:48:59.033Z,6.63
2022-10-10T17:51:29.066Z,7.32
2022-10-10T17:54:00.980Z,8.90
2022-10-10T17:56:30.243Z,7.38
2022-10-10T17:59:01.494Z,7.53
2022-10-10T18:01:31.402Z,6.00
2022-10-10T18:04:00.474Z,8.00
2022-10-10T18:06:31.820Z,7.38
2022-10-10T18:09:01.257Z,6.00
2022-10-10T18:11:32.763Z,6.00
2022-10-10T18:14:01.444Z,5.95
2022-10-10T18:16:33.968Z,10.60
2022-10-10T18:19:04.131Z,5.95
2022-10-10T18:21:34.971Z,7.82
2022-10-10T18:24:03.700Z,5.90
2022-10-10T18:26:35.027Z,6.18
2022-10-10T18:29:03.657Z,8.23
2022-10-10T18:31:35.069Z,5.95
2022-10-10T18:34:05.366Z,5.80
2022-10-10T18:36:39.301Z,6.18
2022-10-10T18:39:12.789Z,8.35
2022-10-10T18:41:41.808Z,6.38
2022-10-10T18:44:16.734Z,6.97
2022-10-10T18:46:46.327Z,8.43
2022-10-10T18:49:15.378Z,5.63
2022-10-10T18:51:45.858Z,6.78
2022-10-10T18:54:18.109Z,7.15
2022-10-10T18:56:49.528Z,6.38
2022-10-10T18:59:22.296Z,8.73
2022-10-10T19:01:52.641Z,10.13
2022-10-10T19:04:23.253Z,5.68
2022-10-10T19:06:57.484Z,7.07
2022-10-10T19:09:27.865Z,6.20
2022-10-10T19:11:56.531Z,6.20
2022-10-10T19:14:25.187Z,5.55
2022-10-10T19:16:53.825Z,7.45
2022-10-10T19:19:22.842Z,9.27
2022-10-10T19:21:52.989Z,6.75
2022-10-10T19:24:22.520Z,6.57
2022-10-10T19:26:54.894Z,5.95
2022-10-10T19:29:24.661Z,6.00
2022-10-10T19:31:53.535Z,5.40
2022-10-10T19:34:22.433Z,4.97
2022-10-10T19:36:52.496Z,4.95
2022-10-10T19:39:21.472Z,5.70
2022-10-10T19:41:50.158Z,8.13
2022-10-10T19:44:18.918Z,5.25
2022-10-10T19:46:47.488Z,5.90
2022-10-10T19:49:16.060Z,5.50
2022-10-10T19:51:44.615Z,6.65
2022-10-10T19:54:14.644Z,7.72
2022-10-10T19:56:43.272Z,7.18
2022-10-10T19:59:11.870Z,12.38
2022-10-10T20:01:40.643Z,7.43
2022-10-10T20:04:09.281Z,6.32
2022-10-10T20:06:37.972Z,5.38
2022-10-10T20:09:10.628Z,5.20
2022-10-10T20:11:41.546Z,5.57
2022-10-10T20:14:10.810Z,5.35
2022-10-10T20:16:39.510Z,9.60
2022-10-10T20:19:08.699Z,6.07
2022-10-10T20:21:37.354Z,5.25
2022-10-10T20:24:09.971Z,5.68
2022-10-10T20:26:40.722Z,5.13
2022-10-10T20:29:10.137Z,7.00
2022-10-10T20:31:39.477Z,5.20
2022-10-10T20:34:08.587Z,5.63
2022-10-10T20:36:39.183Z,9.27
2022-10-10T20:39:10.758Z,5.78
2022-10-10T20:41:42.721Z,9.50
2022-10-10T20:44:15.800Z,7.85
2022-10-10T20:46:46.821Z,7.03
2022-10-10T20:49:19.705Z,9.75
2022-10-10T20:51:51.030Z,6.75
2022-10-10T20:54:22.171Z,6.80
2022-10-10T20:56:52.208Z,7.40
2022-10-10T20:59:22.535Z,6.05
2022-10-10T21:01:51.614Z,6.28
2022-10-10T21:04:20.392Z,8.18
2022-10-10T21:06:49.039Z,7.13
2022-10-10T21:09:17.736Z,7.15
2022-10-10T21:11:50.052Z,7.70
2022-10-10T21:14:21.026Z,6.82
2022-10-10T21:16:50.702Z,6.68
2022-10-10T21:19:19.242Z,9.85
2022-10-10T21:21:48.226Z,11.57
2022-10-10T21:24:16.801Z,6.70
2022-10-10T21:26:45.573Z,6.57
2022-10-10T21:29:14.164Z,8.68
2022-10-10T21:31:44.711Z,6.13
2022-10-10T21:34:18.811Z,5.80
2022-10-10T21:36:47.854Z,5.55
2022-10-10T21:39:16.796Z,5.03
2022-10-10T21:41:45.379Z,5.97
2022-10-10T21:44:15.877Z,5.70
2022-10-10T21:46:45.939Z,6.22
2022-10-10T21:49:15.890Z,9.43
2022-10-10T21:51:46.632Z,7.43
2022-10-10T21:54:15.895Z,4.80
2022-10-10T21:56:44.518Z,5.88
2022-10-10T21:59:13.384Z,5.22
2022-10-10T22:01:42.746Z,4.55
2022-10-10T22:04:12.779Z,5.55
2022-10-10T22:06:41.614Z,4.32
2022-10-10T22:09:10.305Z,4.32
2022-10-10T22:11:38.856Z,7.75
2022-10-10T22:14:07.487Z,10.23
2022-10-10T22:16:37.239Z,30.70
2022-10-10T22:19:06.883Z,46.33
2022-10-10T22:21:36.977Z,54.03
2022-10-10T22:24:09.117Z,19.15
2022-10-10T22:26:38.607Z,12.80
2022-10-10T22:29:07.266Z,11.23
2022-10-10T22:31:37.885Z,8.02
2022-10-10T22:34:08.108Z,6.68
2022-10-10T22:36:38.223Z,8.90
2022-10-10T22:39:11.063Z,12.20
2022-10-10T22:41:39.957Z,10.48
2022-10-10T22:44:08.828Z,8.75
2022-10-10T22:46:37.931Z,9.88
2022-10-10T22:49:06.661Z,10.65
2022-10-10T22:51:35.348Z,9.57
2022-10-10T22:54:05.804Z,9.05
2022-10-10T22:56:34.609Z,8.80
2022-10-10T22:59:03.225Z,7.78
2022-10-10T23:01:31.997Z,7.90
2022-10-10T23:04:09.247Z,7.25
2022-10-10T23:06:38.456Z,5.38
2022-10-10T23:09:08.765Z,7.22
2022-10-10T23:11:37.548Z,8.40
2022-10-10T23:14:06.968Z,7.85
2022-10-10T23:16:40.382Z,5.88
2022-10-10T23:19:09.409Z,7.80
2022-10-10T23:21:38.001Z,7.07
2022-10-10T23:24:08.541Z,6.43
2022-10-10T23:26:37.132Z,6.10
2022-10-10T23:29:05.695Z,5.82
2022-10-10T23:31:35.579Z,5.78
2022-10-10T23:34:04.319Z,4.63
2022-10-10T23:36:32.904Z,5.93
2022-10-10T23:39:02.911Z,6.35
2022-10-10T23:41:34.453Z,6.93
2022-10-10T23:44:03.053Z,6.88
2022-10-10T23:46:31.644Z,7.60
2022-10-10T23:49:00.250Z,8.95
2022-10-10T23:51:29.635Z,5.97
2022-10-10T23:53:58.267Z,6.30
2022-10-10T23:56:26.904Z,4.93
2022-10-10T23:58:56.846Z,6.13
